< Typhoon 200620 2006 Season Typhoon 200622 >
Typhoon 200621 (DURIAN)
General InformationTrack Information on Google MapsDetailed Wind InformationAccess Analytics MapList of All Images || NewsDisaster Info.WeblogTrackbackTyphoon FrontResourceGoogle EarthGE AnimationAtom FeedGeoJSON
Detalied Best Track (Time Zone = UTC)
Year Month Day Hour Lat. Long. Pressure (hPa) Wind (kt) Class Image Chart
2006 11 25 06 9.6 147.2 1004 0 2 Image Chart
2006 11 25 12 9.5 146.1 1004 0 2 Image Chart
2006 11 25 18 9.6 145.1 1004 0 2 Image Chart
2006 11 26 00 10.0 144.0 1002 0 2 Image Chart
2006 11 26 06 10.1 142.7 1002 0 2 Image Chart
2006 11 26 12 10.0 141.4 1000 35 3 Image Chart
2006 11 26 18 9.9 140.3 1000 35 3 Image Chart
2006 11 27 00 9.9 139.2 1000 40 3 Image Chart
2006 11 27 06 10.3 138.5 998 40 3 Image Chart
2006 11 27 12 10.6 137.7 994 45 3 Image Chart
2006 11 27 18 10.8 136.1 990 50 4 Image Chart
2006 11 28 00 11.3 134.6 985 50 4 Image Chart
2006 11 28 06 11.9 133.1 980 55 4 Image Chart
2006 11 28 12 12.2 131.4 975 60 4 Image Chart
2006 11 28 18 12.6 130.1 965 70 5 Image Chart
2006 11 29 00 13.0 128.6 950 80 5 Image Chart
2006 11 29 06 13.2 127.3 925 100 5 Image Chart
2006 11 29 12 13.3 126.4 915 105 5 Image Chart
2006 11 29 18 13.4 125.4 925 100 5 Image Chart
2006 11 30 00 13.4 124.6 940 90 5 Image Chart
2006 11 30 06 13.4 123.6 940 90 5 Image Chart
2006 11 30 12 13.5 122.4 950 80 5 Image Chart
2006 11 30 18 13.5 121.2 960 75 5 Image Chart
2006 12 1 00 13.6 120.3 960 75 5 Image Chart
2006 12 1 06 13.5 119.6 965 70 5 Image Chart
2006 12 1 12 13.4 118.6 965 70 5 Image Chart
2006 12 1 18 13.4 118.0 965 70 5 Image Chart
2006 12 2 00 13.7 117.0 965 70 5 Image Chart
2006 12 2 06 13.7 116.4 965 70 5 Image Chart
2006 12 2 12 13.9 115.6 965 70 5 Image Chart
2006 12 2 18 13.9 114.7 960 75 5 Image Chart
2006 12 3 00 13.9 114.0 955 75 5 Image Chart
2006 12 3 06 13.8 113.3 955 75 5 Image Chart
2006 12 3 12 13.5 112.9 955 75 5 Image Chart
2006 12 3 18 13.1 112.0 960 75 5 Image Chart
2006 12 4 00 12.5 111.3 970 65 5 Image Chart
2006 12 4 06 11.5 110.3 980 60 4 Image Chart
2006 12 4 12 10.8 109.7 980 60 4 Image Chart
2006 12 4 18 10.4 108.4 980 60 4 Image Chart
2006 12 5 00 10.0 107.0 990 45 3 Image Chart
2006 12 5 06 9.1 105.6 1004 0 2 Image Chart
2006 12 5 12 8.7 103.0 1006 0 2 Image Chart
2006 12 5 18 9.3 101.3 1008 0 2 Image Chart
2006 12 6 00 9.5 99.6 1010 0 2 Image Chart
Japan Meteorological Agency Best Track Data | Correction Date : 2007-01-09
< Typhoon 200620 2006 Season Typhoon 200622 >

Help